Terminal Aerodrome Forecast
Issued by NWS

Home | Current Version | Previous Version | Text Only | Print | Product List | Glossary On
Versions: 1 2 3 4 5 6 7 8 9 10 11 12 13 14 15 16 17 18 19 20 21 22
201
FTUS41 KBTV 132338
TAFSLK
TAF
KSLK 132338Z 1400/1424 26009G19KT P6SM SCT015 OVC030
      TEMPO 1400/1404 3SM -SN BR OVC015
     FM140400 25009KT P6SM BKN200
     FM141600 24008G18KT P6SM SCT150=

USA.gov is the U.S. government's official web portal to all federal, state and local government web resources and services.